Time;durP1;ratioP1;P1;durP2;ratioP2;P2;SDS_P1;SDS_P2;PMS_P1;PMS_P2;Temp;Humidity;BMP_temperature;BMP_pressure;BME280_temperature;BME280_humidity;BME280_pressure;Samples;Min_cycle;Max_cycle;Signal;HPM_P1;HPM_P2
2022/05/27 00:00:18;;;;;;;4.53;2.20;;;;;;;15.05;71.85;96839.59;5090391;28;20036;-79
2022/05/27 00:02:45;;;;;;;4.93;2.63;;;;;;;15.02;71.96;96841.06;5090885;28;20706;-79
2022/05/27 00:05:13;;;;;;;5.38;2.28;;;;;;;15.01;72.21;96833.97;5090387;28;20486;-79
2022/05/27 00:07:39;;;;;;;4.78;2.03;;;;;;;14.98;72.21;96828.34;5091082;28;20036;-79
2022/05/27 00:10:10;;;;;;;3.53;1.95;;;;;;;14.95;72.29;96829.81;5090200;28;20040;-79
2022/05/27 00:12:36;;;;;;;4.80;2.35;;;;;;;14.93;72.40;96828.53;5089295;28;20039;-79
2022/05/27 00:15:04;;;;;;;3.50;1.90;;;;;;;14.94;71.66;96827.44;5090214;28;20052;-79
2022/05/27 00:17:30;;;;;;;5.28;2.30;;;;;;;14.94;71.88;96822.75;5090730;28;20056;-79
2022/05/27 00:19:57;;;;;;;4.10;1.85;;;;;;;14.92;72.09;96825.00;5090811;28;20051;-78
2022/05/27 00:22:23;;;;;;;3.90;2.17;;;;;;;14.86;72.65;96820.84;5090108;28;20048;-78
2022/05/27 00:24:50;;;;;;;3.78;2.13;;;;;;;14.84;72.76;96823.94;5090583;28;20050;-79
2022/05/27 00:27:18;;;;;;;4.97;2.25;;;;;;;14.80;72.79;96822.19;5089962;28;20047;-78
2022/05/27 00:29:44;;;;;;;2.83;2.17;;;;;;;14.77;72.96;96822.84;5090709;28;20043;-78
2022/05/27 00:32:11;;;;;;;2.88;2.08;;;;;;;14.74;72.59;96807.88;5089893;28;20459;-78
2022/05/27 00:34:37;;;;;;;4.15;2.17;;;;;;;14.72;72.36;96799.22;5090475;28;20043;-77
2022/05/27 00:37:04;;;;;;;4.68;2.10;;;;;;;14.70;72.40;96800.66;5090055;28;20051;-79
2022/05/27 00:39:31;;;;;;;4.28;2.50;;;;;;;14.65;71.95;96809.88;5090463;28;20044;-79
2022/05/27 00:41:57;;;;;;;9.43;2.47;;;;;;;14.55;71.77;96802.03;5088969;28;20044;-78
2022/05/27 00:44:25;;;;;;;5.20;2.30;;;;;;;14.50;71.92;96802.25;5089721;28;20063;-78
2022/05/27 00:46:53;;;;;;;6.05;2.10;;;;;;;14.50;72.21;96802.25;5090437;28;20051;-78
2022/05/27 00:49:23;;;;;;;3.50;2.33;;;;;;;14.53;72.77;96807.06;5089853;28;20047;-79
2022/05/27 00:51:54;;;;;;;3.10;2.00;;;;;;;14.52;72.99;96795.31;5090248;28;20494;-77
2022/05/27 00:54:23;;;;;;;5.13;2.28;;;;;;;14.51;73.00;96801.09;5089895;28;20503;-79
2022/05/27 00:56:54;;;;;;;5.65;2.17;;;;;;;14.50;73.36;96802.25;5090172;28;20410;-78
2022/05/27 00:59:24;;;;;;;6.72;2.17;;;;;;;14.49;73.83;96800.66;5089815;28;20044;-78
2022/05/27 01:01:53;;;;;;;3.55;2.25;;;;;;;14.48;73.87;96799.84;5090534;28;20040;-79
2022/05/27 01:04:21;;;;;;;5.32;2.05;;;;;;;14.50;74.40;96802.25;5089514;28;20048;-78
2022/05/27 01:06:48;;;;;;;3.65;2.30;;;;;;;14.49;74.42;96800.66;5090188;28;20403;-77
2022/05/27 01:09:15;;;;;;;3.90;2.30;;;;;;;14.47;74.09;96798.25;5089612;28;20052;-77
2022/05/27 01:11:57;;;;;;;4.05;2.35;;;;;;;14.43;73.94;96797.25;5088855;28;20067;-78
2022/05/27 01:14:33;;;;;;;3.42;2.42;;;;;;;14.40;73.37;96791.63;5089615;28;20486;-79
2022/05/27 01:17:08;;;;;;;4.30;2.40;;;;;;;14.38;73.56;96799.41;5090326;28;20055;-78
2022/05/27 01:20:19;;;;;;;4.28;2.45;;;;;;;14.35;73.84;96796.19;5089857;28;20067;-79
2022/05/27 01:23:03;;;;;;;4.93;2.70;;;;;;;14.32;73.88;96798.78;5089903;28;20074;-79
2022/05/27 01:26:11;;;;;;;2.97;2.20;;;;;;;14.30;73.87;96799.13;5093064;28;20064;-77
2022/05/27 01:28:42;;;;;;;3.17;2.50;;;;;;;14.27;74.70;96797.03;5094091;28;20043;-80
2022/05/27 01:31:28;;;;;;;5.47;2.25;;;;;;;14.29;74.77;96797.50;5093600;28;20059;-78
2022/05/27 01:34:04;;;;;;;5.22;2.50;;;;;;;14.30;74.80;96796.38;5093865;28;20048;-77
2022/05/27 01:36:38;;;;;;;2.97;2.40;;;;;;;14.31;74.76;96795.25;5093590;28;20048;-77
2022/05/27 01:39:11;;;;;;;3.05;2.47;;;;;;;14.34;73.54;96791.81;5093438;28;20051;-78
2022/05/27 01:41:44;;;;;;;7.38;2.60;;;;;;;14.32;73.54;96790.56;5092707;28;20143;-79
2022/05/27 01:44:18;;;;;;;4.20;2.60;;;;;;;14.30;73.43;96781.84;5093258;28;20044;-78
2022/05/27 01:46:47;;;;;;;5.25;2.78;;;;;;;14.31;73.46;96797.19;5093651;28;20058;-79
2022/05/27 01:49:23;;;;;;;6.18;2.80;;;;;;;14.32;73.79;96790.56;5092759;28;20573;-78
2022/05/27 01:51:56;;;;;;;4.28;2.80;;;;;;;14.24;73.01;96789.47;5093759;28;20048;-80
2022/05/27 01:54:25;;;;;;;;;;;;;;;14.18;72.93;96784.50;5093539;28;20686;-78
2022/05/27 01:56:57;;;;;;;3.58;2.55;;;;;;;14.10;73.11;96794.41;5093491;28;19998;-78
2022/05/27 01:59:31;;;;;;;4.28;2.55;;;;;;;14.08;73.42;96788.44;5092817;28;20407;-78
2022/05/27 02:02:01;;;;;;;;;;;;;;;14.05;73.64;96789.91;5093910;28;20047;-78
2022/05/27 02:04:33;;;;;;;5.10;2.88;;;;;;;14.01;73.56;96791.69;5093090;28;19927;-79
2022/05/27 02:07:03;;;;;;;6.93;3.42;;;;;;;13.94;73.44;96788.66;5091454;28;20059;-78
2022/05/27 02:09:35;;;;;;;7.15;2.90;;;;;;;13.93;73.76;96783.50;5091646;28;20117;-77
2022/05/27 02:12:07;;;;;;;6.60;2.70;;;;;;;13.98;73.68;96791.53;5092719;28;20048;-76
2022/05/27 02:14:40;;;;;;;4.70;3.00;;;;;;;14.06;73.24;96788.75;5093115;28;20304;-79
2022/05/27 02:17:11;;;;;;;;;;;;;;;14.10;73.52;96794.41;5093319;28;20491;-78
2022/05/27 02:19:41;;;;;;;6.82;2.67;;;;;;;14.09;74.14;96792.75;5093386;28;19920;-78
2022/05/27 02:22:13;;;;;;;4.18;2.63;;;;;;;14.13;74.26;96792.91;5092761;28;20047;-80
2022/05/27 02:24:43;;;;;;;4.10;2.63;;;;;;;14.10;73.82;96794.41;5092831;28;20491;-79
2022/05/27 02:27:13;;;;;;;6.95;3.03;;;;;;;14.14;73.86;96795.31;5092291;28;20071;-80
2022/05/27 02:29:44;;;;;;;5.95;3.22;;;;;;;14.18;73.90;96793.53;5092955;28;20040;-79
2022/05/27 02:32:16;;;;;;;4.43;3.20;;;;;;;14.12;73.30;96797.59;5091638;28;20043;-78
2022/05/27 02:37:35;;;;;;;5.10;3.15;;;;;;;14.07;73.17;96793.09;5090263;28;20094;-78
2022/05/27 02:40:05;;;;;;;6.70;3.53;;;;;;;14.14;73.61;96786.31;5092282;28;20047;-76
2022/05/27 02:42:36;;;;;;;4.30;3.28;;;;;;;14.15;73.57;96796.94;5092606;28;20051;-79
2022/05/27 02:45:15;;;;;;;3.97;2.70;;;;;;;14.15;73.25;96796.94;5092137;28;20502;-77
2022/05/27 02:47:52;;;;;;;6.03;3.00;;;;;;;14.18;73.57;96785.31;5092551;28;20048;-80
2022/05/27 02:50:28;;;;;;;5.65;3.28;;;;;;;14.11;73.43;96785.03;5092333;28;20050;-79
2022/05/27 02:53:05;;;;;;;7.65;3.30;;;;;;;14.14;73.65;96783.56;5092386;28;20052;-78
2022/05/27 02:55:39;;;;;;;7.18;3.38;;;;;;;14.24;73.64;96783.19;5091976;28;20044;-79
2022/05/27 02:58:06;;;;;;;5.55;2.88;;;;;;;14.34;74.36;96780.88;5091532;28;20071;-79
2022/05/27 03:00:35;;;;;;;3.97;2.65;;;;;;;14.37;74.74;96776.69;5092401;28;20048;-78
2022/05/27 03:03:03;;;;;;;6.63;2.97;;;;;;;14.39;73.91;96773.59;5091938;28;20067;-78
2022/05/27 03:05:37;;;;;;;4.07;2.53;;;;;;;14.42;73.82;96778.44;5092236;28;20044;-79
2022/05/27 03:08:13;;;;;;;3.63;2.65;;;;;;;14.48;73.71;96777.13;5089035;28;20537;-79
2022/05/27 03:10:53;;;;;;;5.55;2.80;;;;;;;14.43;73.50;96780.81;5092179;28;20050;-79
2022/05/27 03:13:35;;;;;;;6.03;2.92;;;;;;;14.45;73.73;96777.75;5091661;28;20040;-78
2022/05/27 03:16:10;;;;;;;4.70;2.60;;;;;;;14.51;73.34;96776.44;5091576;28;20047;-77
2022/05/27 03:19:06;;;;;;;5.10;2.90;;;;;;;14.55;73.80;96772.69;5092003;28;20507;-77
2022/05/27 03:21:36;;;;;;;5.72;2.88;;;;;;;14.53;72.91;96774.97;5091753;28;20044;-77
2022/05/27 03:24:14;;;;;;;3.40;2.63;;;;;;;14.50;72.34;96772.09;5091406;28;20047;-77
2022/05/27 03:26:52;;;;;;;4.53;2.40;;;;;;;14.51;72.22;96774.53;5091856;28;20044;-79
2022/05/27 03:29:26;;;;;;;4.85;2.60;;;;;;;14.52;72.24;96778.06;5091098;28;20712;-78
2022/05/27 03:31:59;;;;;;;3.42;2.22;;;;;;;14.45;72.44;96766.78;5091828;28;20052;-76
2022/05/27 03:34:33;;;;;;;3.70;2.28;;;;;;;14.27;72.64;96772.38;5091149;28;20070;-78
2022/05/27 03:37:05;;;;;;;4.55;2.55;;;;;;;14.26;73.56;96769.97;5091075;28;20513;-78
2022/05/27 03:39:41;;;;;;;4.28;2.70;;;;;;;14.24;73.47;96773.03;5090300;28;20071;-81
2022/05/27 03:42:09;;;;;;;5.50;2.90;;;;;;;14.27;73.68;96777.84;5091130;28;20399;-79
2022/05/27 03:44:36;;;;;;;4.57;2.70;;;;;;;14.24;73.54;96780.44;5091416;28;20047;-79
2022/05/27 03:47:03;;;;;;;4.80;2.70;;;;;;;14.31;73.74;96773.31;5090238;28;20567;-79
2022/05/27 03:49:31;;;;;;;6.25;2.58;;;;;;;14.36;73.57;96778.63;5091382;28;20047;-78
2022/05/27 03:52:00;;;;;;;4.40;2.58;;;;;;;14.45;73.40;96780.47;5091177;28;20052;-79
2022/05/27 03:54:27;;;;;;;5.35;2.60;;;;;;;14.53;73.29;96776.94;5090963;28;20498;-79
2022/05/27 03:56:53;;;;;;;4.70;2.42;;;;;;;14.55;72.55;96771.91;5091161;28;20059;-79
2022/05/27 03:59:20;;;;;;;5.85;2.58;;;;;;;14.61;72.43;96778.78;5090567;28;20051;-79
2022/05/27 04:01:49;;;;;;;3.38;2.20;;;;;;;14.46;72.45;96777.44;5091242;28;20044;-80
2022/05/27 04:04:20;;;;;;;3.72;2.17;;;;;;;14.50;72.34;96780.31;5090517;28;20048;-79
2022/05/27 04:06:48;;;;;;;3.25;2.22;;;;;;;14.44;72.36;96776.16;5090928;28;20051;-78
2022/05/27 04:09:15;;;;;;;3.25;1.90;;;;;;;14.44;72.62;96782.44;5087748;28;20051;-79
2022/05/27 04:11:42;;;;;;;2.97;2.13;;;;;;;14.44;71.95;96779.69;5090955;28;20043;-80
2022/05/27 04:14:09;;;;;;;3.80;2.20;;;;;;;14.49;72.04;96789.69;5090229;28;20040;-80
2022/05/27 04:16:36;;;;;;;3.20;2.00;;;;;;;14.48;72.00;96782.59;5091080;28;20047;-79
2022/05/27 04:19:03;;;;;;;4.20;2.10;;;;;;;14.52;72.24;96778.06;5090283;28;20586;-79
2022/05/27 04:21:30;;;;;;;3.17;2.20;;;;;;;14.45;72.64;96777.75;5090528;28;20060;-80
2022/05/27 04:23:58;;;;;;;5.50;2.40;;;;;;;14.34;73.02;96772.66;5090615;28;20048;-79
2022/05/27 04:26:25;;;;;;;6.32;2.00;;;;;;;14.26;73.35;96776.25;5090154;28;20040;-76
2022/05/27 04:28:53;;;;;;;2.58;1.90;;;;;;;14.36;72.93;96773.13;5090564;28;20055;-79
2022/05/27 04:31:19;;;;;;;3.92;2.00;;;;;;;14.42;72.79;96773.75;5090283;28;20040;-79
2022/05/27 04:33:46;;;;;;;5.53;2.20;;;;;;;14.55;72.32;96771.91;5090480;28;20048;-79
2022/05/27 04:36:14;;;;;;;4.32;2.00;;;;;;;14.53;72.59;96769.50;5090024;28;20135;-79
2022/05/27 04:38:42;;;;;;;5.28;2.10;;;;;;;14.59;72.79;96779.13;5087980;28;20044;-80
2022/05/27 04:41:10;;;;;;;4.00;1.95;;;;;;;14.63;72.83;96773.78;5089841;28;20059;-80
2022/05/27 04:43:36;;;;;;;3.88;2.00;;;;;;;14.58;72.60;96776.72;5089715;28;20379;-79
2022/05/27 04:46:04;;;;;;;3.65;2.10;;;;;;;14.63;72.67;96768.31;5089918;28;20055;-79
2022/05/27 04:48:30;;;;;;;3.42;1.95;;;;;;;14.63;72.35;96773.00;5090287;28;20048;-79
2022/05/27 04:50:58;;;;;;;9.27;2.10;;;;;;;14.53;72.92;96774.97;5090478;28;20051;-80
2022/05/27 04:53:25;;;;;;;3.60;1.90;;;;;;;14.59;73.06;96783.81;5089854;28;20068;-79
2022/05/27 04:55:52;;;;;;;6.07;2.20;;;;;;;14.63;73.55;96778.47;5090454;28;20040;-79
2022/05/27 04:58:19;;;;;;;3.55;2.00;;;;;;;14.57;73.84;96777.88;5089838;28;20047;-79
2022/05/27 05:00:48;;;;;;;4.63;2.15;;;;;;;14.55;73.93;96777.38;5090387;28;20569;-79
2022/05/27 05:03:15;;;;;;;6.35;2.33;;;;;;;14.49;74.52;96775.97;5089785;28;20134;-79
2022/05/27 05:05:42;;;;;;;4.80;2.10;;;;;;;14.52;74.29;96772.59;5090509;28;20044;-79
2022/05/27 05:08:16;;;;;;;6.20;3.22;;;;;;;14.56;74.44;96773.50;5087136;28;20074;-80
2022/05/27 05:10:43;;;;;;;6.20;2.00;;;;;;;14.67;74.53;96779.38;5090267;28;20059;-80
2022/05/27 05:13:09;;;;;;;5.95;2.10;;;;;;;14.70;74.35;96765.81;5089579;28;20445;-80
2022/05/27 05:15:38;;;;;;;6.40;2.13;;;;;;;14.69;74.85;96761.50;5090053;28;20044;-81
2022/05/27 05:18:04;;;;;;;12.98;2.53;;;;;;;14.68;74.70;96765.38;5089691;28;20036;-79
2022/05/27 05:20:32;;;;;;;5.82;2.03;;;;;;;14.83;74.32;96761.22;5090116;28;20517;-80
2022/05/27 05:23:00;;;;;;;6.78;2.55;;;;;;;14.84;74.11;96749.91;5089976;28;20048;-79
2022/05/27 05:25:27;;;;;;;5.50;2.10;;;;;;;14.97;73.63;96760.94;5089540;28;20043;-79
2022/05/27 05:27:54;;;;;;;2.72;1.90;;;;;;;15.09;74.03;96775.50;5089834;28;20060;-80
2022/05/27 05:30:23;;;;;;;2.58;1.95;;;;;;;15.18;74.08;96769.94;5089528;28;20459;-79
2022/05/27 05:32:51;;;;;;;4.22;2.20;;;;;;;15.26;73.36;96769.06;5089870;28;20403;-79
2022/05/27 05:35:18;;;;;;;4.75;2.63;;;;;;;15.35;73.36;96767.03;5089324;28;20041;-80
2022/05/27 05:37:45;;;;;;;3.95;2.00;;;;;;;15.28;72.32;96766.75;5087390;28;20044;-79
2022/05/27 05:40:13;;;;;;;3.25;2.30;;;;;;;15.33;72.66;96758.31;5089350;28;20108;-79
2022/05/27 05:42:41;;;;;;;7.05;2.45;;;;;;;15.39;72.55;96767.13;5089822;28;20047;-79
2022/05/27 05:45:09;;;;;;;4.68;2.20;;;;;;;15.42;71.97;96765.66;5089415;28;20406;-80
2022/05/27 05:47:36;;;;;;;4.60;2.50;;;;;;;15.48;71.62;96770.59;5089824;28;20047;-79
2022/05/27 05:50:04;;;;;;;3.67;2.78;;;;;;;15.55;71.93;96770.03;5089436;28;20055;-79
2022/05/27 05:52:30;;;;;;;5.40;2.00;;;;;;;15.66;71.48;96771.25;5089976;28;20036;-79
2022/05/27 05:54:57;;;;;;;7.72;2.40;;;;;;;15.68;71.39;96763.47;5089551;28;20048;-79
2022/05/27 05:57:23;;;;;;;5.47;2.10;;;;;;;15.78;71.52;96762.22;5089255;28;20048;-79
2022/05/27 05:59:50;;;;;;;3.53;1.90;;;;;;;15.73;71.13;96760.50;5089718;28;20415;-80
2022/05/27 06:02:16;;;;;;;8.27;2.65;;;;;;;15.66;71.62;96763.00;5089039;28;20074;-79
2022/05/27 06:04:43;;;;;;;6.22;2.45;;;;;;;15.59;71.76;96771.75;5089597;28;20051;-79
2022/05/27 06:07:11;;;;;;;4.97;2.10;;;;;;;15.70;71.84;96765.88;5087345;28;20047;-79
2022/05/27 06:09:38;;;;;;;6.28;2.20;;;;;;;15.82;72.07;96763.16;5089303;28;20048;-79
2022/05/27 06:12:05;;;;;;;4.63;2.30;;;;;;;15.80;70.58;96762.66;5092799;28;20052;-80
2022/05/27 06:14:32;;;;;;;3.10;1.90;;;;;;;15.80;69.03;96759.94;5093209;28;20078;-79
2022/05/27 06:16:58;;;;;;;3.13;1.80;;;;;;;15.83;68.88;96753.75;5092994;28;20040;-79
2022/05/27 06:19:25;;;;;;;5.55;2.25;;;;;;;16.00;69.04;96763.72;5092547;28;20047;-79
2022/05/27 06:21:51;;;;;;;3.05;2.00;;;;;;;16.03;68.42;96763.84;5093219;28;20040;-78
2022/05/27 06:24:19;;;;;;;4.85;2.00;;;;;;;16.08;67.95;96754.59;5092309;28;20048;-78
2022/05/27 06:26:45;;;;;;;4.22;2.00;;;;;;;16.17;68.16;96749.75;5092899;28;20063;-79
2022/05/27 06:34:39;;;;;;;3.60;2.00;;;;;;;16.47;66.92;96744.00;5061092;28;20085;-79
2022/05/27 06:37:09;;;;;;;4.47;1.88;;;;;;;16.61;65.87;96747.19;5090641;28;20048;-79
2022/05/27 06:39:38;;;;;;;3.55;1.70;;;;;;;16.68;65.87;96744.63;5092505;28;20101;-79
2022/05/27 06:42:07;;;;;;;4.35;2.13;;;;;;;16.73;65.86;96751.88;5092254;28;20051;-79
2022/05/27 06:44:34;;;;;;;3.33;1.70;;;;;;;16.77;64.26;96752.78;5092650;28;20040;-79
2022/05/27 06:47:01;;;;;;;2.30;1.70;;;;;;;16.88;64.69;96743.69;5092388;28;20089;-80
2022/05/27 06:49:27;;;;;;;8.90;1.70;;;;;;;16.90;65.54;96741.38;5091948;28;20051;-80
2022/05/27 06:51:54;;;;;;;5.22;2.00;;;;;;;16.95;66.19;96748.59;5092568;28;20078;-79
2022/05/27 06:54:21;;;;;;;4.15;1.67;;;;;;;17.00;65.36;96755.78;5092028;28;20047;-80
2022/05/27 06:56:52;;;;;;;4.68;1.20;;;;;;;17.06;63.21;96746.13;5092219;28;20059;-80
2022/05/27 06:59:20;;;;;;;4.28;1.23;;;;;;;17.12;63.05;96741.97;5091818;28;20051;-80
2022/05/27 07:01:46;;;;;;;3.30;1.20;;;;;;;17.14;61.26;96736.94;5092157;28;20532;-80
2022/05/27 07:04:14;;;;;;;5.80;1.60;;;;;;;17.00;61.13;96740.09;5091657;28;20055;-80
2022/05/27 07:06:43;;;;;;;2.55;1.30;;;;;;;17.01;61.30;96743.63;5092225;28;20044;-81
2022/05/27 07:09:11;;;;;;;2.08;1.30;;;;;;;17.07;62.54;96743.06;5089088;28;20139;-80
2022/05/27 07:11:39;;;;;;;2.45;1.45;;;;;;;17.29;63.84;96735.38;5092308;28;20131;-81
2022/05/27 07:14:06;;;;;;;2.17;1.30;;;;;;;17.42;61.94;96734.94;5091515;28;20048;-79
2022/05/27 07:16:33;;;;;;;3.35;1.17;;;;;;;17.52;63.35;96717.09;5091881;28;20052;-80
2022/05/27 07:19:00;;;;;;;4.22;1.50;;;;;;;17.61;60.81;96726.00;5091887;28;20051;-80
2022/05/27 07:21:26;;;;;;;5.07;1.50;;;;;;;17.74;60.21;96729.50;5090688;28;20044;-81
2022/05/27 07:23:53;;;;;;;4.40;1.52;;;;;;;17.69;59.04;96715.97;5091564;28;20655;-79
2022/05/27 07:26:20;;;;;;;6.07;1.45;;;;;;;17.71;59.86;96713.66;5091083;28;20056;-80
2022/05/27 07:28:47;;;;;;;4.50;1.20;;;;;;;17.77;58.96;96716.97;5091733;28;20063;-81
2022/05/27 07:31:17;;;;;;;1.65;1.02;;;;;;;17.86;58.11;96709.34;5091252;28;20047;-81
2022/05/27 07:33:43;;;;;;;3.40;1.35;;;;;;;17.87;58.42;96714.50;5091550;28;20063;-77
2022/05/27 07:36:10;;;;;;;2.80;1.20;;;;;;;17.88;59.01;96707.81;5091115;28;20071;-78
2022/05/27 07:38:37;;;;;;;4.88;1.50;;;;;;;17.99;58.86;96714.38;5088835;28;20044;-80
2022/05/27 07:41:03;;;;;;;5.20;1.40;;;;;;;18.17;60.96;96708.50;5091361;28;20055;-81
2022/05/27 07:43:30;;;;;;;2.92;1.00;;;;;;;18.26;59.85;96703.56;5091322;28;20055;-79
2022/05/27 07:45:56;;;;;;;5.70;1.35;;;;;;;18.39;58.92;96699.56;5091302;28;20071;-80
2022/05/27 07:48:24;;;;;;;3.10;1.40;;;;;;;18.52;60.03;96701.00;5090916;28;20067;-79
2022/05/27 07:50:51;;;;;;;6.25;1.50;;;;;;;18.59;58.74;96703.13;5091358;28;20093;-80
2022/05/27 07:53:18;;;;;;;3.20;1.65;;;;;;;18.70;57.07;96703.41;5090736;28;20411;-80
2022/05/27 07:55:45;;;;;;;4.60;1.63;;;;;;;18.76;57.06;96704.69;5091352;28;20044;-80
2022/05/27 07:58:11;;;;;;;3.33;1.50;;;;;;;18.89;57.56;96697.84;5090581;28;20040;-80
2022/05/27 08:00:39;;;;;;;4.20;1.38;;;;;;;18.76;55.89;96701.94;5091199;28;20050;-80
2022/05/27 08:03:06;;;;;;;3.50;1.30;;;;;;;19.04;56.20;96693.44;5090322;28;20055;-81
2022/05/27 08:05:35;;;;;;;2.85;1.48;;;;;;;19.58;54.72;96698.00;5091086;28;20429;-79
2022/05/27 08:08:02;;;;;;;3.47;1.60;;;;;;;19.60;53.95;96694.88;5087919;28;20123;-82
2022/05/27 08:10:30;;;;;;;4.75;2.42;;;;;;;19.67;55.11;96692.22;5090877;28;20044;-79
2022/05/27 08:12:57;;;;;;;5.13;1.80;;;;;;;19.68;55.46;96702.09;5090950;28;20051;-79
2022/05/27 08:15:24;;;;;;;4.35;1.20;;;;;;;19.83;54.26;96698.41;5090282;28;20043;-79
2022/05/27 08:17:51;;;;;;;5.78;1.30;;;;;;;19.92;54.42;96698.97;5090558;28;20422;-80
2022/05/27 08:20:21;;;;;;;2.95;1.38;;;;;;;20.13;55.19;96695.75;5090120;28;20056;-81
2022/05/27 08:22:49;;;;;;;2.00;1.00;;;;;;;20.18;53.15;96697.41;5090568;28;20051;-81
2022/05/27 08:25:17;;;;;;;3.33;1.40;;;;;;;19.97;54.49;96690.38;5089930;28;20486;-80
2022/05/27 08:27:44;;;;;;;2.47;1.23;;;;;;;19.94;53.96;96693.06;5090282;28;20043;-80
2022/05/27 08:30:16;;;;;;;3.60;1.10;;;;;;;19.93;54.03;96686.75;5090355;28;20047;-79
2022/05/27 08:32:42;;;;;;;3.72;1.42;;;;;;;20.08;52.77;96680.28;5090243;28;20051;-79
2022/05/27 08:38:03;;;;;;;2.95;1.25;;;;;;;20.50;53.34;96687.63;5087984;28;20051;-80
2022/05/27 08:40:49;;;;;;;5.22;1.52;;;;;;;20.53;52.52;96680.56;5090225;28;20044;-79
2022/05/27 08:43:23;;;;;;;4.70;1.35;;;;;;;20.34;52.40;96685.00;5086480;28;20051;-80
2022/05/27 08:46:00;;;;;;;4.18;1.27;;;;;;;20.29;54.04;96681.75;5090441;28;20052;-80
2022/05/27 08:48:31;;;;;;;4.15;1.30;;;;;;;20.27;53.78;96675.81;5090001;28;20040;-81
2022/05/27 08:51:04;;;;;;;3.35;1.20;;;;;;;20.07;53.86;96691.72;5090530;28;20074;-79
2022/05/27 08:53:38;;;;;;;3.22;1.13;;;;;;;20.10;55.72;96690.16;5090295;28;20077;-80
2022/05/27 09:01:42;;;;;;;4.10;1.38;;;;;;;20.46;52.47;96675.69;5090207;28;20043;-80
2022/05/27 09:04:17;;;;;;;3.97;1.40;;;;;;;20.56;53.11;96668.72;5089568;28;20059;-79
2022/05/27 09:06:48;;;;;;;5.38;1.42;;;;;;;20.84;53.26;96668.31;5090121;28;20483;-79
2022/05/27 09:09:21;;;;;;;1.98;1.10;;;;;;;20.98;51.67;96673.97;5086941;28;20055;-79
2022/05/27 09:12:14;;;;;;;2.88;1.20;;;;;;;21.26;51.13;96662.44;5090149;28;20060;-80
2022/05/27 09:14:45;;;;;;;4.30;1.80;;;;;;;21.42;52.66;96665.00;5089940;28;20068;-80
2022/05/27 09:17:17;;;;;;;5.68;1.60;;;;;;;21.48;54.09;96659.91;5089793;28;20491;-78
2022/05/27 09:19:51;;;;;;;3.55;1.45;;;;;;;21.74;49.88;96661.72;5089878;28;20430;-80
2022/05/27 09:22:27;;;;;;;5.18;1.15;;;;;;;21.91;50.80;96663.81;5089688;28;20045;-80
2022/05/27 09:25:05;;;;;;;6.35;1.33;;;;;;;21.92;49.47;96659.06;5090009;28;20055;-78
2022/05/27 09:27:42;;;;;;;1.70;1.30;;;;;;;21.36;50.21;96650.69;5089785;28;20044;-79
2022/05/27 09:30:10;;;;;;;2.63;1.30;;;;;;;21.00;51.22;96654.25;5089545;28;20249;-79
2022/05/27 09:32:47;;;;;;;2.63;1.20;;;;;;;21.01;52.25;96651.09;5089937;28;20039;-79
2022/05/27 09:35:18;;;;;;;5.47;2.67;;;;;;;21.01;52.41;96645.56;5089396;28;20048;-81
2022/05/27 09:37:50;;;;;;;2.75;1.30;;;;;;;20.80;53.00;96645.31;5087303;28;20048;-80
2022/05/27 09:40:24;;;;;;;5.90;1.70;;;;;;;20.83;53.61;96644.56;5089616;28;20071;-79
2022/05/27 09:42:58;;;;;;;5.53;1.40;;;;;;;21.17;55.74;96648.09;5089646;28;20047;-79
2022/05/27 09:45:25;;;;;;;4.70;1.48;;;;;;;21.37;53.35;96648.72;5090812;28;20048;-79
2022/05/27 09:47:58;;;;;;;3.55;1.27;;;;;;;21.47;50.81;96644.47;5093539;28;20542;-80
2022/05/27 09:50:27;;;;;;;3.53;1.42;;;;;;;21.24;49.35;96639.06;5093104;28;20084;-78
2022/05/27 09:52:58;;;;;;;3.60;1.35;;;;;;;21.17;49.76;96648.09;5093602;28;20071;-79
2022/05/27 09:55:29;;;;;;;4.28;1.02;;;;;;;21.24;51.12;96639.06;5093069;28;20048;-80
2022/05/27 09:57:58;;;;;;;6.70;1.38;;;;;;;21.35;50.19;96642.75;5093773;28;20090;-80
2022/05/27 10:00:38;;;;;;;5.15;1.40;;;;;;;21.40;50.44;96638.84;5092823;28;20047;-80
2022/05/27 10:03:23;;;;;;;3.47;1.35;;;;;;;21.37;51.13;96634.88;5092659;28;20048;-79
2022/05/27 10:05:52;;;;;;;2.85;1.30;;;;;;;21.37;49.14;96634.88;5093482;28;20048;-80
2022/05/27 10:08:28;;;;;;;2.92;1.17;;;;;;;21.53;48.64;96640.94;5089955;28;20498;-80
2022/05/27 10:11:14;;;;;;;2.83;1.08;;;;;;;21.50;50.54;96638.94;5093164;28;20064;-80
2022/05/27 10:13:42;;;;;;;2.28;1.02;;;;;;;21.48;49.98;96630.22;5093115;28;20063;-80
2022/05/27 10:16:11;;;;;;;3.25;1.15;;;;;;;21.38;50.43;96625.38;5092559;28;20071;-79
2022/05/27 10:18:38;;;;;;;2.42;1.15;;;;;;;21.38;49.99;96617.06;5093076;28;20036;-80
2022/05/27 10:21:13;;;;;;;5.30;1.33;;;;;;;21.54;51.25;96623.16;5092686;28;20486;-79
2022/05/27 10:23:42;;;;;;;2.67;1.25;;;;;;;21.78;50.02;96620.97;5092968;28;20043;-79
2022/05/27 10:26:29;;;;;;;1.92;1.27;;;;;;;21.73;49.55;96613.00;5092176;28;20044;-80
2022/05/27 10:28:58;;;;;;;4.15;1.27;;;;;;;21.80;50.24;96613.06;5092184;28;20131;-79
2022/05/27 10:31:25;;;;;;;2.65;1.20;;;;;;;21.78;50.57;96609.88;5092259;28;20517;-80
2022/05/27 10:33:53;;;;;;;6.18;1.10;;;;;;;21.65;52.06;96616.91;5092704;28;20068;-80
2022/05/27 10:36:34;;;;;;;3.33;1.27;;;;;;;21.23;51.41;96610.56;5092288;28;20483;-81
2022/05/27 10:39:04;;;;;;;3.35;1.50;;;;;;;21.15;51.70;96610.91;5090119;28;20052;-79
2022/05/27 10:41:42;;;;;;;5.82;1.60;;;;;;;20.94;52.38;96612.28;5092695;28;20040;-80
2022/05/27 10:44:15;;;;;;;7.07;1.67;;;;;;;20.70;54.14;96602.50;5092086;28;20044;-80
2022/05/27 10:46:54;;;;;;;3.90;1.00;;;;;;;20.66;53.49;96595.31;5092473;28;20044;-80
2022/05/27 10:49:50;;;;;;;3.25;1.40;;;;;;;20.91;53.24;96596.41;5091927;28;20044;-80
2022/05/27 10:52:32;;;;;;;1.95;1.25;;;;;;;21.22;50.98;96594.34;5091979;28;20055;-79
2022/05/27 10:55:14;;;;;;;2.85;1.48;;;;;;;21.34;52.51;96594.06;5092497;28;20044;-80
2022/05/27 11:04:04;;;;;;;5.15;1.65;;;;;;;20.99;53.38;96586.22;5092026;28;20070;-81
2022/05/27 11:06:57;;;;;;;4.85;1.42;;;;;;;21.23;53.83;96584.84;5092218;28;20073;-79
2022/05/27 11:09:34;;;;;;;1.88;1.23;;;;;;;21.56;53.09;96584.78;5089570;28;20067;-79
2022/05/27 11:12:09;;;;;;;4.63;1.13;;;;;;;21.88;53.86;96576.69;5092155;28;20048;-79
2022/05/27 11:17:54;;;;;;;3.97;1.20;;;;;;;21.87;53.09;96574.28;5091964;28;20096;-79
2022/05/27 11:20:49;;;;;;;3.22;1.35;;;;;;;22.10;49.64;96566.56;5091347;28;20123;-80
2022/05/27 11:23:39;;;;;;;3.28;1.20;;;;;;;22.29;49.90;96570.19;5091301;28;20062;-79
2022/05/27 11:26:12;;;;;;;4.95;1.50;;;;;;;22.13;49.33;96565.78;5091107;28;20044;-80
2022/05/27 11:29:02;;;;;;;2.75;1.40;;;;;;;22.03;49.24;96560.94;5091667;28;20044;-79
2022/05/27 11:31:42;;;;;;;3.67;1.50;;;;;;;21.54;50.66;96564.97;5088681;28;20040;-79
2022/05/27 11:34:22;;;;;;;6.18;1.40;;;;;;;21.61;51.33;96562.25;5090938;28;20044;-79
2022/05/27 11:37:24;;;;;;;3.03;1.20;;;;;;;21.73;53.61;96552.03;5091382;28;20040;-79
2022/05/27 11:40:08;;;;;;;2.92;1.40;;;;;;;21.86;50.97;96550.53;5071316;28;20487;-79
2022/05/27 11:42:55;;;;;;;3.28;1.20;;;;;;;22.01;49.92;96546.66;5071019;28;20048;-79
2022/05/27 11:45:24;;;;;;;2.13;1.10;;;;;;;22.14;50.49;96541.63;5070556;28;20044;-80
2022/05/27 11:48:00;;;;;;;3.38;1.25;;;;;;;22.27;51.08;96536.50;5071003;28;20043;-80
2022/05/27 11:50:42;;;;;;;3.03;1.20;;;;;;;22.20;50.59;96542.03;5070639;28;20036;-79
2022/05/27 11:53:22;;;;;;;3.08;1.50;;;;;;;21.88;52.06;96526.78;5070440;28;20056;-80
2022/05/27 11:56:09;;;;;;;1.85;1.30;;;;;;;21.54;50.10;96534.47;5071084;28;20040;-79
2022/05/27 11:58:46;;;;;;;4.32;1.33;;;;;;;21.59;52.94;96527.78;5070649;28;20510;-80
2022/05/27 12:01:22;;;;;;;2.92;1.30;;;;;;;21.51;53.89;96526.94;5070314;28;20067;-79
2022/05/27 12:03:59;;;;;;;3.75;1.17;;;;;;;21.56;53.61;96523.81;5070858;28;20051;-79
2022/05/27 12:06:33;;;;;;;7.85;1.52;;;;;;;21.59;52.21;96514.72;5070239;28;20048;-80
2022/05/27 12:09:05;;;;;;;4.93;1.50;;;;;;;21.70;52.58;96514.00;5086881;28;20208;-79
2022/05/27 12:11:38;;;;;;;5.05;1.90;;;;;;;21.63;52.89;96509.22;5091001;28;20044;-80
2022/05/27 12:14:13;;;;;;;4.28;1.10;;;;;;;21.33;51.03;96521.25;5090514;28;20491;-79
2022/05/27 12:16:44;;;;;;;4.30;1.60;;;;;;;21.41;52.33;96507.47;5090972;28;20074;-80
2022/05/27 12:19:18;;;;;;;2.22;1.40;;;;;;;21.30;52.75;96501.88;5090438;28;20052;-80